Date,TemperatureHighF,TemperatureAvgF,TemperatureLowF,DewpointHighF,DewpointAvgF,DewpointLowF,HumidityHigh,HumidityAvg,HumidityLow,PressureMaxIn,PressureMinIn,WindSpeedMaxMPH,WindSpeedAvgMPH,GustSpeedMaxMPH,PrecipitationSumIn
2013-2-1,29,23,16,21,17,6,91,77,60,0.00,40.00,8,4,13,0.00
2013-2-2,38,25,15,12,5,-2,61,42,19,0.00,40.00,5,1,7,0.00
2013-2-3,35,27,19,10,2,-7,58,33,17,0.00,40.00,4,2,7,0.00
2013-2-4,31,23,17,12,8,4,70,53,40,0.00,40.00,7,2,12,0.00
2013-2-5,42,32,22,19,10,3,59,40,24,0.00,40.00,7,1,12,0.00
2013-2-6,30,24,14,20,12,-6,89,61,38,0.00,40.00,7,2,10,0.01
2013-2-7,40,26,14,12,-7,-15,52,24,10,0.00,40.00,4,2,10,0.00
2013-2-8,27,22,14,19,14,8,95,74,50,0.00,40.00,5,2,10,0.09
2013-2-9,19,13,8,14,9,4,95,86,57,0.00,40.00,7,2,11,0.16
2013-2-10,17,10,5,16,9,2,96,93,90,0.00,40.00,5,2,8,0.06
2013-2-11,22,9,4,21,7,1,97,92,90,0.00,40.00,7,2,9,0.00
2013-2-12,15,14,13,13,13,12,95,95,94,0.00,40.00,5,4,8,0.04
2013-2-13,29,18,13,26,17,12,97,95,90,0.00,40.00,8,4,13,0.01
2013-2-14,26,19,12,23,17,8,97,90,76,0.00,40.00,8,4,14,0.11
2013-2-15,30,20,12,20,12,5,92,73,51,0.00,40.00,5,2,8,0.00
2013-2-16,40,29,19,9,5,-3,55,36,26,0.00,40.00,7,2,10,0.00
2013-2-17,32,22,9,18,8,1,88,57,26,0.00,40.00,8,4,15,0.00
2013-2-18,26,16,5,2,-4,-22,76,46,11,0.00,40.00,3,1,6,0.00
2013-2-19,33,26,20,8,5,-1,53,39,31,0.00,40.00,11,4,25,0.00
2013-2-20,30,21,17,21,16,10,97,81,46,0.00,40.00,6,3,8,0.19
2013-2-21,21,13,6,20,12,4,96,94,91,0.00,40.00,6,2,9,0.11
2013-2-22,16,11,5,14,9,2,94,92,88,0.00,40.00,6,3,11,0.13
2013-2-23,21,13,8,19,11,6,95,92,89,0.00,40.00,10,5,20,0.53
2013-2-24,25,10,3,23,8,0,96,91,87,0.00,40.00,7,3,10,0.08
2013-2-25,31,14,4,21,8,1,94,78,36,0.00,40.00,5,2,8,0.01
2013-2-26,15,9,2,14,8,-1,94,92,89,0.00,40.00,8,4,13,0.21
2013-2-27,24,10,0,23,7,-2,94,85,58,0.00,40.00,5,2,8,0.00
2013-2-28,25,20,11,19,8,0,79,61,46,0.00,40.00,8,4,11,0.00